Time,TemperatureF,DewpointF,PressureIn,WindDirection,WindDirectionDegrees,WindSpeedMPH,WindSpeedGustMPH,Humidity,HourlyPrecipIn,Conditions,Clouds,dailyrainin,SoftwareType,DateUTC
2013-02-27 00:00:00,33.1,32.6,29.62,ENE,68,6.0,6.3,98,0.00,,CLR,0.12,VWS V14.01,2013-02-27 05:00:00,
2013-02-27 00:01:00,33.1,32.6,29.59,ENE,68,6.0,6.3,98,0.00,,CLR,0.12,VWS V14.01,2013-02-27 05:01:00,
2013-02-27 00:02:00,33.1,32.6,29.59,ENE,68,6.0,6.3,98,0.00,,CLR,0.12,VWS V14.01,2013-02-27 05:02:00,
2013-02-27 00:07:00,33.1,32.6,29.59,ENE,68,6.0,6.3,98,0.00,,CLR,0.12,VWS V14.01,2013-02-27 05:07:00,
2013-02-27 00:09:00,33.1,32.6,29.59,ENE,68,5.4,6.0,98,0.00,,CLR,0.00,VWS V14.01,2013-02-27 05:09:00,
2013-02-27 00:14:00,33.3,32.8,29.59,ENE,68,5.4,6.0,98,0.00,,CLR,0.00,VWS V14.01,2013-02-27 05:14:00,
2013-02-27 00:19:00,33.3,32.8,29.59,ENE,68,5.4,6.0,98,0.00,,CLR,0.00,VWS V14.01,2013-02-27 05:19:00,
2013-02-27 00:24:00,33.3,32.8,29.59,ENE,68,5.4,6.0,98,0.00,,CLR,0.00,VWS V14.01,2013-02-27 05:24:00,
2013-02-27 00:29:00,33.3,32.8,29.59,ENE,68,5.4,6.0,98,0.00,,CLR,0.00,VWS V14.01,2013-02-27 05:29:00,
2013-02-27 00:34:00,33.3,32.8,29.56,ENE,68,5.4,6.0,98,0.00,,CLR,0.00,VWS V14.01,2013-02-27 05:34:00,
2013-02-27 00:39:00,33.3,32.8,29.56,ENE,68,5.4,6.0,98,0.00,,CLR,0.00,VWS V14.01,2013-02-27 05:39:00,
2013-02-27 00:44:00,33.3,32.8,29.56,ENE,68,5.4,6.0,98,0.00,,CLR,0.00,VWS V14.01,2013-02-27 05:44:00,
2013-02-27 00:49:00,33.3,32.8,29.56,ENE,68,5.4,6.0,98,0.00,,CLR,0.00,VWS V14.01,2013-02-27 05:49:00,
2013-02-27 00:54:00,33.3,32.8,29.56,ENE,68,5.4,6.0,98,0.00,,CLR,0.00,VWS V14.01,2013-02-27 05:54:00,
2013-02-27 00:59:00,33.3,32.8,29.56,ENE,68,5.4,6.0,98,0.00,,CLR,0.00,VWS V14.01,2013-02-27 05:59:00,
2013-02-27 01:00:00,33.3,32.8,29.56,ENE,68,5.4,6.0,98,0.00,,CLR,0.00,VWS V14.01,2013-02-27 06:00:00,
2013-02-27 01:04:00,33.3,32.8,29.56,ENE,68,5.4,6.0,98,0.00,,CLR,0.00,VWS V14.01,2013-02-27 06:04:00,
2013-02-27 01:09:00,33.3,32.8,29.56,ENE,68,5.4,5.4,98,0.00,,CLR,0.00,VWS V14.01,2013-02-27 06:09:00,
2013-02-27 01:14:00,33.3,32.8,29.56,ENE,68,5.4,5.4,98,0.00,,CLR,0.00,VWS V14.01,2013-02-27 06:14:00,
2013-02-27 01:19:00,33.3,32.8,29.56,ENE,68,5.4,5.4,98,0.00,,CLR,0.00,VWS V14.01,2013-02-27 06:19:00,
2013-02-27 01:24:00,33.3,32.8,29.56,ENE,68,5.4,5.4,98,0.00,,CLR,0.00,VWS V14.01,2013-02-27 06:24:00,
2013-02-27 01:29:00,33.4,32.9,29.56,ENE,68,5.4,5.4,98,0.00,,CLR,0.00,VWS V14.01,2013-02-27 06:29:00,
2013-02-27 01:34:00,33.4,32.9,29.56,ENE,68,5.4,5.4,98,0.00,,CLR,0.00,VWS V14.01,2013-02-27 06:34:00,
2013-02-27 01:39:00,33.6,33.1,29.56,ENE,68,5.4,5.4,98,0.00,,CLR,0.00,VWS V14.01,2013-02-27 06:39:00,
2013-02-27 01:44:00,33.6,33.1,29.56,ENE,68,5.4,5.4,98,0.00,,CLR,0.00,VWS V14.01,2013-02-27 06:44:00,
2013-02-27 01:49:00,33.6,33.1,29.56,ENE,68,5.4,5.4,98,0.00,,CLR,0.00,VWS V14.01,2013-02-27 06:49:00,
2013-02-27 01:55:00,33.6,33.1,29.56,ENE,68,5.4,5.4,98,0.00,,CLR,0.00,VWS V14.01,2013-02-27 06:55:00,
2013-02-27 02:00:00,33.6,33.1,29.56,ENE,68,5.4,5.4,98,0.00,,CLR,0.00,VWS V14.01,2013-02-27 07:00:00,
2013-02-27 02:05:00,33.6,33.1,29.56,ENE,68,6.0,6.0,98,0.00,,CLR,0.00,VWS V14.01,2013-02-27 07:05:00,
2013-02-27 02:10:00,33.8,33.3,29.56,ENE,68,6.0,6.0,98,0.00,,CLR,0.00,VWS V14.01,2013-02-27 07:10:00,
2013-02-27 02:15:00,33.8,33.3,29.56,East,90,6.5,7.8,98,0.05,,CLR,0.05,VWS V14.01,2013-02-27 07:15:00,
2013-02-27 02:20:00,33.8,33.3,29.56,ESE,112,6.7,7.8,98,0.05,,CLR,0.05,VWS V14.01,2013-02-27 07:20:00,
2013-02-27 02:25:00,33.8,33.3,29.56,East,90,6.3,7.8,98,0.05,,CLR,0.05,VWS V14.01,2013-02-27 07:25:00,
2013-02-27 02:30:00,33.8,33.3,29.56,East,90,4.9,8.1,98,0.05,,CLR,0.05,VWS V14.01,2013-02-27 07:30:00,
2013-02-27 02:35:00,33.8,33.3,29.56,ENE,68,6.5,8.1,98,0.05,,CLR,0.05,VWS V14.01,2013-02-27 07:35:00,
2013-02-27 02:40:00,33.8,33.3,29.56,East,90,8.1,8.1,98,0.05,,CLR,0.05,VWS V14.01,2013-02-27 07:40:00,
2013-02-27 02:45:00,33.8,33.3,29.56,ENE,68,7.6,8.7,98,0.05,,CLR,0.05,VWS V14.01,2013-02-27 07:45:00,
2013-02-27 02:50:00,33.8,33.3,29.56,East,90,7.4,8.7,98,0.05,,CLR,0.05,VWS V14.01,2013-02-27 07:50:00,
2013-02-27 02:55:00,33.8,33.3,29.56,East,90,7.2,8.7,98,0.05,,CLR,0.05,VWS V14.01,2013-02-27 07:55:00,
2013-02-27 03:00:00,33.8,33.3,29.56,East,90,5.6,8.7,98,0.05,,CLR,0.05,VWS V14.01,2013-02-27 08:00:00,
2013-02-27 03:05:00,33.6,33.1,29.56,East,90,8.1,8.7,98,0.05,,CLR,0.05,VWS V14.01,2013-02-27 08:05:00,
2013-02-27 03:10:00,33.6,33.1,29.56,ENE,68,6.0,8.5,98,0.05,,CLR,0.05,VWS V14.01,2013-02-27 08:10:00,
2013-02-27 03:15:00,33.4,32.9,29.56,ENE,68,6.5,8.5,98,0.05,,CLR,0.05,VWS V14.01,2013-02-27 08:15:00,
2013-02-27 03:20:00,33.3,32.8,29.56,ENE,68,6.7,8.5,98,0.05,,CLR,0.05,VWS V14.01,2013-02-27 08:20:00,
2013-02-27 03:25:00,33.3,32.8,29.56,ENE,68,5.4,8.5,98,0.05,,CLR,0.05,VWS V14.01,2013-02-27 08:25:00,
2013-02-27 03:30:00,33.3,32.8,29.56,ENE,68,6.5,8.5,98,0.05,,CLR,0.05,VWS V14.01,2013-02-27 08:30:00,
2013-02-27 03:35:00,33.3,32.8,29.56,ENE,68,8.5,8.5,98,0.05,,CLR,0.05,VWS V14.01,2013-02-27 08:35:00,
2013-02-27 03:40:00,33.3,32.8,29.56,ENE,68,6.5,8.5,98,0.05,,CLR,0.05,VWS V14.01,2013-02-27 08:40:00,
2013-02-27 03:45:00,33.3,32.8,29.56,ENE,68,5.8,8.5,98,0.05,,CLR,0.05,VWS V14.01,2013-02-27 08:45:00,
2013-02-27 03:50:00,33.3,32.8,29.56,ENE,68,6.0,8.5,98,0.09,,CLR,0.09,VWS V14.01,2013-02-27 08:50:00,
2013-02-27 03:55:00,33.3,32.8,29.56,ENE,68,6.5,8.5,98,0.09,,CLR,0.09,VWS V14.01,2013-02-27 08:55:00,
2013-02-27 04:00:00,33.3,32.8,29.56,ENE,68,4.9,8.5,98,0.09,,CLR,0.09,VWS V14.01,2013-02-27 09:00:00,
2013-02-27 04:01:00,33.3,32.8,29.56,ENE,68,6.5,8.5,98,0.09,,CLR,0.09,VWS V14.01,2013-02-27 09:01:00,
2013-02-27 04:06:00,33.3,32.8,29.56,ENE,68,6.5,8.5,98,0.09,,CLR,0.09,VWS V14.01,2013-02-27 09:06:00,
2013-02-27 04:11:00,33.3,32.8,29.56,ENE,68,6.3,7.8,98,0.04,,CLR,0.09,VWS V14.01,2013-02-27 09:11:00,
2013-02-27 04:16:00,33.3,32.8,29.56,East,90,6.5,7.8,98,0.04,,CLR,0.09,VWS V14.01,2013-02-27 09:16:00,
2013-02-27 04:21:00,33.3,32.8,29.56,ENE,68,5.8,7.8,98,0.04,,CLR,0.09,VWS V14.01,2013-02-27 09:21:00,
2013-02-27 04:26:00,33.3,32.8,29.56,ENE,68,6.3,7.8,98,0.04,,CLR,0.09,VWS V14.01,2013-02-27 09:26:00,
2013-02-27 04:31:00,33.3,32.8,29.56,ENE,68,5.8,7.8,98,0.04,,CLR,0.09,VWS V14.01,2013-02-27 09:31:00,
2013-02-27 04:36:00,33.3,32.8,29.56,ENE,68,4.7,7.8,98,0.04,,CLR,0.09,VWS V14.01,2013-02-27 09:36:00,
2013-02-27 04:41:00,33.3,32.8,29.56,ENE,68,4.5,7.8,98,0.04,,CLR,0.09,VWS V14.01,2013-02-27 09:41:00,
2013-02-27 04:46:00,33.1,32.6,29.56,ENE,68,5.4,7.8,98,0.04,,CLR,0.09,VWS V14.01,2013-02-27 09:46:00,
2013-02-27 04:51:00,33.1,32.6,29.56,ENE,68,4.9,7.8,98,0.04,,CLR,0.09,VWS V14.01,2013-02-27 09:51:00,
2013-02-27 04:56:00,33.1,32.6,29.56,ENE,68,5.6,7.8,98,0.04,,CLR,0.09,VWS V14.01,2013-02-27 09:56:00,
2013-02-27 05:00:00,33.1,32.6,29.56,ENE,68,5.4,7.8,98,0.04,,CLR,0.09,VWS V14.01,2013-02-27 10:00:00,
2013-02-27 05:01:00,33.1,32.6,29.56,ENE,68,5.4,7.8,98,0.04,,CLR,0.09,VWS V14.01,2013-02-27 10:01:00,
2013-02-27 05:06:00,33.1,32.6,29.56,ENE,68,4.7,7.8,98,0.04,,CLR,0.09,VWS V14.01,2013-02-27 10:06:00,
2013-02-27 05:11:00,33.1,32.6,29.56,ENE,68,4.3,5.4,98,0.00,,CLR,0.09,VWS V14.01,2013-02-27 10:11:00,
2013-02-27 05:16:00,33.1,32.6,29.53,ENE,68,3.8,5.4,98,0.00,,CLR,0.09,VWS V14.01,2013-02-27 10:16:00,
2013-02-27 05:21:00,33.1,32.6,29.53,ENE,68,4.0,5.6,98,0.00,,CLR,0.09,VWS V14.01,2013-02-27 10:21:00,
2013-02-27 05:26:00,33.1,32.6,29.53,ENE,68,3.4,5.6,98,0.00,,CLR,0.09,VWS V14.01,2013-02-27 10:26:00,
2013-02-27 05:31:00,33.1,32.6,29.53,NE,45,3.8,5.8,98,0.00,,CLR,0.09,VWS V14.01,2013-02-27 10:31:00,
2013-02-27 05:36:00,33.1,32.6,29.53,ENE,68,4.9,5.8,98,0.00,,CLR,0.09,VWS V14.01,2013-02-27 10:36:00,
2013-02-27 05:41:00,33.1,32.6,29.53,ENE,68,4.3,5.8,98,0.00,,CLR,0.09,VWS V14.01,2013-02-27 10:41:00,
2013-02-27 05:46:00,33.1,32.6,29.53,ENE,68,5.4,5.8,98,0.00,,CLR,0.09,VWS V14.01,2013-02-27 10:46:00,
2013-02-27 05:50:00,33.3,32.8,29.56,ENE,68,6.0,6.0,98,0.00,,CLR,0.09,VWS V14.01,2013-02-27 10:50:00,
2013-02-27 05:51:00,33.1,32.6,29.53,ENE,68,4.9,6.5,98,0.00,,CLR,0.09,VWS V14.01,2013-02-27 10:51:00,
2013-02-27 05:56:00,33.1,32.6,29.53,NE,45,4.3,6.5,98,0.00,,CLR,0.09,VWS V14.01,2013-02-27 10:56:00,
2013-02-27 06:00:00,33.3,32.8,29.53,ENE,68,4.3,7.4,98,0.00,,CLR,0.09,VWS V14.01,2013-02-27 11:00:00,
2013-02-27 06:02:00,33.3,32.8,29.53,NE,45,5.8,7.4,98,0.00,,CLR,0.09,VWS V14.01,2013-02-27 11:02:00,
2013-02-27 06:07:00,33.3,32.8,29.53,ENE,68,5.8,7.4,98,0.00,,CLR,0.09,VWS V14.01,2013-02-27 11:07:00,
2013-02-27 06:12:00,33.3,32.8,29.53,NE,45,5.4,7.2,98,0.00,,CLR,0.09,VWS V14.01,2013-02-27 11:12:00,
2013-02-27 06:17:00,33.3,32.8,29.53,ENE,68,5.4,7.2,98,0.00,,CLR,0.09,VWS V14.01,2013-02-27 11:17:00,
2013-02-27 06:22:00,33.3,32.8,29.53,ENE,68,5.6,7.2,98,0.00,,CLR,0.09,VWS V14.01,2013-02-27 11:22:00,
2013-02-27 06:27:00,33.3,32.8,29.53,ENE,68,5.4,7.2,98,0.00,,CLR,0.09,VWS V14.01,2013-02-27 11:27:00,
2013-02-27 06:32:00,33.3,32.8,29.53,ENE,68,5.4,7.2,98,0.00,,CLR,0.09,VWS V14.01,2013-02-27 11:32:00,
2013-02-27 06:37:00,33.3,32.8,29.53,ENE,68,6.0,7.2,98,0.00,,CLR,0.09,VWS V14.01,2013-02-27 11:37:00,
2013-02-27 06:42:00,33.3,32.8,29.53,ENE,68,5.6,7.2,98,0.00,,CLR,0.09,VWS V14.01,2013-02-27 11:42:00,
2013-02-27 06:47:00,33.3,32.8,29.56,ENE,68,6.3,7.2,98,0.00,,CLR,0.09,VWS V14.01,2013-02-27 11:47:00,
2013-02-27 06:50:00,33.3,32.8,29.56,ENE,68,6.0,6.0,98,0.00,,CLR,0.09,VWS V14.01,2013-02-27 11:50:00,
2013-02-27 06:52:00,33.3,32.8,29.56,ENE,68,5.6,7.2,98,0.00,,CLR,0.09,VWS V14.01,2013-02-27 11:52:00,
2013-02-27 07:00:00,33.1,32.6,29.53,ENE,68,6.0,6.0,98,0.00,,CLR,0.09,VWS V14.01,2013-02-27 12:00:00,
2013-02-27 07:02:00,33.3,32.8,29.53,ENE,68,6.0,6.0,98,0.00,,CLR,0.09,VWS V14.01,2013-02-27 12:02:00,
2013-02-27 07:07:00,33.1,32.6,29.53,ENE,68,6.0,6.0,98,0.00,,CLR,0.09,VWS V14.01,2013-02-27 12:07:00,
2013-02-27 07:12:00,33.1,32.6,29.53,ENE,68,4.3,6.0,98,0.00,,CLR,0.09,VWS V14.01,2013-02-27 12:12:00,
2013-02-27 07:17:00,33.3,32.8,29.53,ENE,68,4.3,6.0,98,0.00,,CLR,0.09,VWS V14.01,2013-02-27 12:17:00,
2013-02-27 07:22:00,33.3,32.8,29.53,ENE,68,4.3,6.0,98,0.00,,CLR,0.09,VWS V14.01,2013-02-27 12:22:00,
2013-02-27 07:27:00,33.3,32.8,29.53,ENE,68,5.6,6.0,98,0.00,,CLR,0.09,VWS V14.01,2013-02-27 12:27:00,
2013-02-27 07:32:00,33.3,32.8,29.56,ENE,68,5.6,6.0,98,0.00,,CLR,0.09,VWS V14.01,2013-02-27 12:32:00,
2013-02-27 07:37:00,33.3,32.8,29.56,ENE,68,5.6,6.0,98,0.00,,CLR,0.09,VWS V14.01,2013-02-27 12:37:00,
2013-02-27 07:42:00,33.4,32.9,29.56,ENE,68,5.6,6.0,98,0.04,,CLR,0.13,VWS V14.01,2013-02-27 12:42:00,
2013-02-27 07:47:00,33.4,32.9,29.53,ENE,68,5.6,6.0,98,0.04,,CLR,0.13,VWS V14.01,2013-02-27 12:47:00,
2013-02-27 07:52:00,33.6,33.1,29.53,ENE,68,5.6,6.0,98,0.04,,CLR,0.13,VWS V14.01,2013-02-27 12:52:00,
2013-02-27 07:57:00,33.6,33.1,29.53,ENE,68,5.6,6.0,98,0.04,,CLR,0.13,VWS V14.01,2013-02-27 12:57:00,
2013-02-27 08:00:00,33.8,33.3,29.53,ENE,68,5.4,6.0,98,0.04,,CLR,0.13,VWS V14.01,2013-02-27 13:00:00,
2013-02-27 08:02:00,33.8,33.3,29.53,ENE,68,5.4,6.0,98,0.04,,CLR,0.13,VWS V14.01,2013-02-27 13:02:00,
2013-02-27 08:07:00,33.8,33.3,29.53,ENE,68,5.4,5.4,98,0.04,,CLR,0.13,VWS V14.01,2013-02-27 13:07:00,
2013-02-27 08:12:00,33.8,33.3,29.53,ENE,68,5.4,5.4,98,0.04,,CLR,0.13,VWS V14.01,2013-02-27 13:12:00,
2013-02-27 08:17:00,34.0,33.5,29.53,ENE,68,5.4,5.4,98,0.04,,CLR,0.13,VWS V14.01,2013-02-27 13:17:00,
2013-02-27 08:22:00,34.2,33.7,29.53,ENE,68,5.4,5.4,98,0.04,,CLR,0.13,VWS V14.01,2013-02-27 13:22:00,
2013-02-27 08:27:00,34.2,33.7,29.53,ENE,68,5.4,5.4,98,0.04,,CLR,0.13,VWS V14.01,2013-02-27 13:27:00,
2013-02-27 08:33:00,34.3,33.8,29.56,ENE,68,5.4,5.4,98,0.04,,CLR,0.13,VWS V14.01,2013-02-27 13:33:00,
2013-02-27 08:38:00,34.5,34.0,29.56,ENE,68,5.4,5.4,98,0.04,,CLR,0.13,VWS V14.01,2013-02-27 13:38:00,
2013-02-27 08:43:00,34.9,34.4,29.56,ENE,68,5.4,5.4,98,0.04,,CLR,0.13,VWS V14.01,2013-02-27 13:43:00,
2013-02-27 08:44:00,37.6,35.5,29.53,East,90,3.4,3.4,92,0.04,,CLR,0.17,VWS V14.01,2013-02-27 13:44:00,
2013-02-27 08:48:00,35.1,34.5,29.53,ENE,68,5.4,5.4,98,0.04,,CLR,0.13,VWS V14.01,2013-02-27 13:48:00,
2013-02-27 08:49:00,37.4,35.0,29.53,ESE,112,3.6,3.6,91,0.00,,CLR,0.17,VWS V14.01,2013-02-27 13:49:00,
2013-02-27 08:53:00,35.4,34.9,29.53,ENE,68,5.4,5.4,98,0.04,,CLR,0.13,VWS V14.01,2013-02-27 13:53:00,
2013-02-27 08:58:00,35.6,35.1,29.53,ENE,68,5.4,5.4,98,0.04,,CLR,0.13,VWS V14.01,2013-02-27 13:58:00,
2013-02-27 09:00:00,36.1,35.6,29.53,ENE,68,5.4,5.4,98,0.08,,CLR,0.17,VWS V14.01,2013-02-27 14:00:00,
2013-02-27 09:03:00,35.8,35.3,29.53,ENE,68,5.4,5.4,98,0.04,,CLR,0.13,VWS V14.01,2013-02-27 14:03:00,
2013-02-27 09:09:00,36.1,35.6,29.53,ENE,68,5.4,5.4,98,0.04,,CLR,0.17,VWS V14.01,2013-02-27 14:09:00,
2013-02-27 09:14:00,36.7,36.2,29.53,ENE,68,5.4,5.4,98,0.04,,CLR,0.17,VWS V14.01,2013-02-27 14:14:00,
2013-02-27 09:19:00,37.2,36.7,29.53,ENE,68,5.4,5.4,98,0.04,,CLR,0.17,VWS V14.01,2013-02-27 14:19:00,
2013-02-27 09:24:00,37.2,36.7,29.53,ENE,68,5.4,5.4,98,0.04,,CLR,0.17,VWS V14.01,2013-02-27 14:24:00,
2013-02-27 09:29:00,37.4,36.6,29.53,East,90,4.3,5.8,97,0.04,,CLR,0.17,VWS V14.01,2013-02-27 14:29:00,
2013-02-27 09:34:00,37.6,36.3,29.53,East,90,4.3,5.8,95,0.04,,CLR,0.17,VWS V14.01,2013-02-27 14:34:00,
2013-02-27 09:39:00,37.9,36.6,29.53,East,90,4.3,5.8,95,0.04,,CLR,0.17,VWS V14.01,2013-02-27 14:39:00,
2013-02-27 09:44:00,37.6,35.7,29.53,East,90,4.9,5.8,93,0.04,,CLR,0.17,VWS V14.01,2013-02-27 14:44:00,
2013-02-27 09:49:00,37.8,35.7,29.53,ESE,112,3.4,5.8,92,0.04,,CLR,0.17,VWS V14.01,2013-02-27 14:49:00,
2013-02-27 10:00:00,37.6,35.2,29.53,ESE,112,4.3,4.7,91,0.00,,CLR,0.17,VWS V14.01,2013-02-27 15:00:00,
2013-02-27 10:02:00,37.4,35.3,29.53,ESE,112,4.7,4.7,92,0.00,,CLR,0.17,VWS V14.01,2013-02-27 15:02:00,
2013-02-27 10:07:00,37.6,35.2,29.53,ESE,112,4.3,4.7,91,0.00,,CLR,0.17,VWS V14.01,2013-02-27 15:07:00,
2013-02-27 10:12:00,37.8,35.7,29.53,ESE,112,3.8,4.3,92,0.04,,CLR,0.21,VWS V14.01,2013-02-27 15:12:00,
2013-02-27 10:17:00,37.8,35.1,29.56,East,90,3.1,4.3,90,0.04,,CLR,0.21,VWS V14.01,2013-02-27 15:17:00,
2013-02-27 10:23:00,38.1,35.7,29.56,East,90,2.9,4.3,91,0.04,,CLR,0.21,VWS V14.01,2013-02-27 15:23:00,
2013-02-27 10:28:00,38.1,35.5,29.56,ENE,68,2.9,4.3,90,0.04,,CLR,0.21,VWS V14.01,2013-02-27 15:28:00,
2013-02-27 10:33:00,37.8,34.8,29.56,ENE,68,3.8,6.3,89,0.04,,CLR,0.21,VWS V14.01,2013-02-27 15:33:00,
2013-02-27 10:38:00,37.4,34.2,29.56,East,90,4.5,6.3,88,0.04,,CLR,0.21,VWS V14.01,2013-02-27 15:38:00,
2013-02-27 10:43:00,37.8,34.5,29.56,ESE,112,5.4,6.3,88,0.04,,CLR,0.21,VWS V14.01,2013-02-27 15:43:00,
2013-02-27 10:48:00,38.1,35.2,29.53,East,90,3.6,6.3,89,0.04,,CLR,0.21,VWS V14.01,2013-02-27 15:48:00,
2013-02-27 10:53:00,38.8,35.9,29.53,ESE,112,3.8,6.3,89,0.04,,CLR,0.21,VWS V14.01,2013-02-27 15:53:00,
2013-02-27 10:58:00,39.7,36.5,29.53,ESE,112,3.8,6.3,88,0.04,,CLR,0.21,VWS V14.01,2013-02-27 15:58:00,
2013-02-27 11:00:00,41.4,37.5,29.53,East,90,3.6,6.3,86,0.04,,CLR,0.21,VWS V14.01,2013-02-27 16:00:00,
2013-02-27 11:03:00,40.8,37.3,29.53,East,90,4.3,6.3,87,0.04,,CLR,0.21,VWS V14.01,2013-02-27 16:03:00,
2013-02-27 11:08:00,41.2,37.0,29.53,ESE,112,3.4,3.6,85,0.04,,CLR,0.21,VWS V14.01,2013-02-27 16:08:00,
2013-02-27 11:13:00,42.1,37.9,29.53,East,90,4.0,4.0,85,0.04,,CLR,0.21,VWS V14.01,2013-02-27 16:13:00,
2013-02-27 11:22:00,43.5,38.7,29.53,East,90,3.1,3.1,83,0.04,,CLR,0.21,VWS V14.01,2013-02-27 16:22:00,
2013-02-27 11:27:00,44.4,39.6,29.53,ESE,112,3.8,4.9,83,0.04,,CLR,0.21,VWS V14.01,2013-02-27 16:27:00,
2013-02-27 11:32:00,44.6,37.8,29.53,ESE,112,4.3,5.4,77,0.04,,CLR,0.21,VWS V14.01,2013-02-27 16:32:00,
2013-02-27 11:37:00,45.5,38.7,29.53,ESE,112,2.7,5.4,77,0.04,,CLR,0.21,VWS V14.01,2013-02-27 16:37:00,
2013-02-27 11:42:00,46.0,39.6,29.53,ESE,112,3.6,5.4,78,0.09,,CLR,0.26,VWS V14.01,2013-02-27 16:42:00,
2013-02-27 11:47:00,45.9,38.7,29.53,SE,135,3.1,5.4,76,0.09,,CLR,0.26,VWS V14.01,2013-02-27 16:47:00,
2013-02-27 11:52:00,45.3,36.1,29.56,SE,135,3.4,5.4,70,0.09,,CLR,0.26,VWS V14.01,2013-02-27 16:52:00,
2013-02-27 11:57:00,44.1,34.6,29.56,SE,135,4.7,5.4,69,0.09,,CLR,0.26,VWS V14.01,2013-02-27 16:57:00,
2013-02-27 12:00:00,42.3,33.5,29.56,ESE,112,4.0,5.6,71,0.09,,CLR,0.26,VWS V14.01,2013-02-27 17:00:00,
2013-02-27 12:02:00,42.8,33.3,29.56,SE,135,4.9,5.6,69,0.09,,CLR,0.26,VWS V14.01,2013-02-27 17:02:00,
2013-02-27 12:07:00,42.3,33.5,29.56,ESE,112,4.0,5.6,71,0.09,,CLR,0.26,VWS V14.01,2013-02-27 17:07:00,
2013-02-27 12:12:00,42.1,33.7,29.56,ESE,112,4.3,6.0,72,0.05,,CLR,0.26,VWS V14.01,2013-02-27 17:12:00,
2013-02-27 12:17:00,41.9,33.9,29.56,SE,135,4.3,6.0,73,0.05,,CLR,0.26,VWS V14.01,2013-02-27 17:17:00,
2013-02-27 12:22:00,42.1,34.7,29.56,SE,135,3.1,6.0,75,0.05,,CLR,0.26,VWS V14.01,2013-02-27 17:22:00,
2013-02-27 12:27:00,42.3,35.2,29.56,SE,135,3.1,6.0,76,0.05,,CLR,0.26,VWS V14.01,2013-02-27 17:27:00,
2013-02-27 12:32:00,42.6,35.6,29.56,SSE,158,2.7,6.0,76,0.05,,CLR,0.26,VWS V14.01,2013-02-27 17:32:00,
2013-02-27 12:37:00,41.9,33.9,29.56,South,180,3.8,6.0,73,0.05,,CLR,0.26,VWS V14.01,2013-02-27 17:37:00,
2013-02-27 12:42:00,40.8,32.5,29.56,SSE,158,5.4,6.0,72,0.05,,CLR,0.26,VWS V14.01,2013-02-27 17:42:00,
2013-02-27 12:48:00,40.1,31.8,29.56,South,180,6.0,7.4,72,0.05,,CLR,0.26,VWS V14.01,2013-02-27 17:48:00,
2013-02-27 12:53:00,39.7,31.8,29.56,South,180,5.8,7.4,73,0.05,,CLR,0.26,VWS V14.01,2013-02-27 17:53:00,
2013-02-27 12:58:00,39.9,32.0,29.56,SSW,202,4.0,7.4,73,0.05,,CLR,0.26,VWS V14.01,2013-02-27 17:58:00,
2013-02-27 13:00:00,40.6,32.3,29.56,South,180,2.9,7.4,72,0.05,,CLR,0.26,VWS V14.01,2013-02-27 18:00:00,
2013-02-27 13:03:00,40.5,32.8,29.56,South,180,3.6,7.4,74,0.05,,CLR,0.26,VWS V14.01,2013-02-27 18:03:00,
2013-02-27 13:08:00,40.6,32.3,29.56,South,180,3.1,3.1,72,0.00,,CLR,0.26,VWS V14.01,2013-02-27 18:08:00,
2013-02-27 13:09:00,38.3,31.4,29.53,South,180,5.4,5.4,76,0.00,,CLR,0.26,VWS V14.01,2013-02-27 18:09:00,
2013-02-27 13:13:00,40.8,32.5,29.56,SSW,202,2.7,5.4,72,0.00,,CLR,0.26,VWS V14.01,2013-02-27 18:13:00,
2013-02-27 13:18:00,40.8,32.2,29.53,SSW,202,4.0,5.6,71,0.00,,CLR,0.26,VWS V14.01,2013-02-27 18:18:00,
2013-02-27 13:23:00,40.5,31.5,29.53,South,180,3.6,6.0,70,0.00,,CLR,0.26,VWS V14.01,2013-02-27 18:23:00,
2013-02-27 13:28:00,40.1,31.1,29.53,SSW,202,4.0,6.0,70,0.00,,CLR,0.26,VWS V14.01,2013-02-27 18:28:00,
2013-02-27 13:33:00,40.3,31.6,29.53,South,180,4.3,6.0,71,0.00,,CLR,0.26,VWS V14.01,2013-02-27 18:33:00,
2013-02-27 13:38:00,40.3,31.3,29.53,South,180,4.0,6.0,70,0.00,,CLR,0.26,VWS V14.01,2013-02-27 18:38:00,
2013-02-27 13:42:00,39.9,32.7,29.53,SW,225,2.2,2.2,75,0.00,,CLR,0.26,VWS V14.01,2013-02-27 18:42:00,
2013-02-27 13:43:00,40.3,31.3,29.53,South,180,3.1,6.0,70,0.00,,CLR,0.26,VWS V14.01,2013-02-27 18:43:00,
2013-02-27 13:47:00,39.9,32.7,29.53,WSW,248,2.5,2.5,75,0.00,,CLR,0.26,VWS V14.01,2013-02-27 18:47:00,
2013-02-27 13:48:00,40.5,31.5,29.53,SSE,158,4.0,6.0,70,0.00,,CLR,0.26,VWS V14.01,2013-02-27 18:48:00,
2013-02-27 13:52:00,39.7,31.5,29.53,SW,225,2.5,2.5,72,0.00,,CLR,0.26,VWS V14.01,2013-02-27 18:52:00,
2013-02-27 13:54:00,39.7,30.8,29.53,South,180,4.5,6.0,70,0.00,,CLR,0.26,VWS V14.01,2013-02-27 18:54:00,
2013-02-27 13:57:00,39.9,32.0,29.53,SSW,202,1.6,2.5,73,0.00,,CLR,0.26,VWS V14.01,2013-02-27 18:57:00,
2013-02-27 13:59:00,39.4,30.8,29.53,SSW,202,5.4,6.3,71,0.00,,CLR,0.26,VWS V14.01,2013-02-27 18:59:00,
2013-02-27 14:00:00,38.5,30.9,29.53,South,180,4.3,6.7,74,0.00,,CLR,0.26,VWS V14.01,2013-02-27 19:00:00,
2013-02-27 14:02:00,39.4,31.1,29.53,South,180,2.7,2.7,72,0.00,,CLR,0.26,VWS V14.01,2013-02-27 19:02:00,
2013-02-27 14:04:00,38.7,31.1,29.53,SSW,202,6.3,6.7,74,0.00,,CLR,0.26,VWS V14.01,2013-02-27 19:04:00,
2013-02-27 14:07:00,39.0,30.8,29.53,SSW,202,2.5,2.7,72,0.00,,CLR,0.26,VWS V14.01,2013-02-27 19:07:00,
2013-02-27 14:09:00,38.7,31.4,29.53,South,180,4.0,4.9,75,0.00,,CLR,0.26,VWS V14.01,2013-02-27 19:09:00,
2013-02-27 14:12:00,38.7,30.8,29.56,SSW,202,3.4,3.4,73,0.00,,CLR,0.26,VWS V14.01,2013-02-27 19:12:00,
2013-02-27 14:17:00,38.5,30.9,29.56,South,180,3.1,3.4,74,0.00,,CLR,0.26,VWS V14.01,2013-02-27 19:17:00,
2013-02-27 14:20:00,38.3,31.4,29.53,South,180,4.0,5.4,76,0.00,,CLR,0.26,VWS V14.01,2013-02-27 19:20:00,
2013-02-27 14:22:00,38.3,30.8,29.56,South,180,2.7,3.1,74,0.00,,CLR,0.26,VWS V14.01,2013-02-27 19:22:00,
2013-02-27 14:25:00,38.3,31.4,29.53,SSE,158,3.6,6.0,76,0.00,,CLR,0.26,VWS V14.01,2013-02-27 19:25:00,
2013-02-27 14:27:00,38.1,30.9,29.56,SSE,158,2.9,2.9,75,0.00,,CLR,0.26,VWS V14.01,2013-02-27 19:27:00,
2013-02-27 14:30:00,38.5,31.6,29.53,South,180,3.4,6.0,76,0.00,,CLR,0.26,VWS V14.01,2013-02-27 19:30:00,
2013-02-27 14:32:00,38.1,30.9,29.56,SSE,158,3.4,3.4,75,0.00,,CLR,0.26,VWS V14.01,2013-02-27 19:32:00,
2013-02-27 14:35:00,38.7,31.8,29.53,South,180,2.5,6.0,76,0.00,,CLR,0.26,VWS V14.01,2013-02-27 19:35:00,
2013-02-27 14:37:00,37.8,30.9,29.56,SSW,202,3.1,3.4,76,0.00,,CLR,0.26,VWS V14.01,2013-02-27 19:37:00,
2013-02-27 14:40:00,39.2,32.0,29.53,SSW,202,1.6,6.0,75,0.00,,CLR,0.26,VWS V14.01,2013-02-27 19:40:00,
2013-02-27 14:42:00,39.9,32.7,29.53,SW,225,2.2,2.2,75,0.00,,CLR,0.26,VWS V14.01,2013-02-27 19:42:00,
2013-02-27 14:45:00,39.7,32.5,29.53,SSW,202,2.5,6.0,75,0.00,,CLR,0.26,VWS V14.01,2013-02-27 19:45:00,
2013-02-27 14:47:00,39.9,32.7,29.53,WSW,248,2.5,2.5,75,0.00,,CLR,0.26,VWS V14.01,2013-02-27 19:47:00,
2013-02-27 14:52:00,39.7,31.5,29.53,SW,225,2.5,2.5,72,0.00,,CLR,0.26,VWS V14.01,2013-02-27 19:52:00,
2013-02-27 14:57:00,39.9,32.0,29.53,SSW,202,1.6,2.5,73,0.00,,CLR,0.26,VWS V14.01,2013-02-27 19:57:00,
2013-02-27 15:02:00,39.4,31.1,29.53,South,180,2.7,2.7,72,0.00,,CLR,0.26,VWS V14.01,2013-02-27 20:02:00,
2013-02-27 15:07:00,39.0,30.8,29.53,SSW,202,2.5,2.7,72,0.00,,CLR,0.26,VWS V14.01,2013-02-27 20:07:00,
2013-02-27 15:12:00,38.7,30.8,29.56,SSW,202,3.4,3.4,73,0.00,,CLR,0.26,VWS V14.01,2013-02-27 20:12:00,
2013-02-27 15:17:00,38.5,30.9,29.56,South,180,3.1,3.4,74,0.00,,CLR,0.26,VWS V14.01,2013-02-27 20:17:00,
2013-02-27 15:22:00,38.3,30.8,29.56,South,180,2.7,3.1,74,0.00,,CLR,0.26,VWS V14.01,2013-02-27 20:22:00,
2013-02-27 15:27:00,38.1,30.9,29.56,SSE,158,2.9,2.9,75,0.00,,CLR,0.26,VWS V14.01,2013-02-27 20:27:00,
2013-02-27 15:32:00,38.1,30.9,29.56,SSE,158,3.4,3.4,75,0.00,,CLR,0.26,VWS V14.01,2013-02-27 20:32:00,
2013-02-27 15:37:00,37.8,30.9,29.56,SSW,202,3.1,3.4,76,0.00,,CLR,0.26,VWS V14.01,2013-02-27 20:37:00,
2013-02-27 15:42:00,37.6,30.7,29.56,SSW,202,2.5,3.1,76,0.00,,CLR,0.26,VWS V14.01,2013-02-27 20:42:00,
2013-02-27 15:47:00,37.6,31.0,29.56,SSW,202,3.1,3.1,77,0.00,,CLR,0.26,VWS V14.01,2013-02-27 20:47:00,
2013-02-27 15:52:00,37.4,30.9,29.56,SSW,202,3.4,3.4,77,0.00,,CLR,0.26,VWS V14.01,2013-02-27 20:52:00,
2013-02-27 15:57:00,37.4,30.9,29.56,South,180,4.0,4.0,77,0.00,,CLR,0.26,VWS V14.01,2013-02-27 20:57:00,
2013-02-27 16:02:00,37.2,31.0,29.56,South,180,4.9,4.9,78,0.00,,CLR,0.26,VWS V14.01,2013-02-27 21:02:00,
2013-02-27 16:07:00,37.0,30.8,29.56,SSW,202,3.4,4.9,78,0.00,,CLR,0.26,VWS V14.01,2013-02-27 21:07:00,
2013-02-27 16:12:00,36.9,31.0,29.56,South,180,4.7,4.7,79,0.00,,CLR,0.26,VWS V14.01,2013-02-27 21:12:00,
2013-02-27 16:17:00,36.9,31.3,29.56,South,180,3.8,4.7,80,0.00,,CLR,0.26,VWS V14.01,2013-02-27 21:17:00,
2013-02-27 16:22:00,36.7,31.1,29.56,SSW,202,4.0,4.0,80,0.00,,CLR,0.26,VWS V14.01,2013-02-27 21:22:00,
2013-02-27 16:27:00,36.7,31.4,29.56,SSW,202,2.9,4.0,81,0.00,,CLR,0.26,VWS V14.01,2013-02-27 21:27:00,
2013-02-27 16:32:00,36.5,31.5,29.56,South,180,3.1,3.1,82,0.00,,CLR,0.26,VWS V14.01,2013-02-27 21:32:00,
2013-02-27 16:37:00,36.5,31.5,29.56,SSW,202,3.1,3.1,82,0.00,,CLR,0.26,VWS V14.01,2013-02-27 21:37:00,
2013-02-27 16:42:00,36.3,31.7,29.56,South,180,3.8,3.8,83,0.00,,CLR,0.26,VWS V14.01,2013-02-27 21:42:00,
2013-02-27 16:47:00,36.1,31.5,29.56,South,180,3.4,3.8,83,0.00,,CLR,0.26,VWS V14.01,2013-02-27 21:47:00,
2013-02-27 16:52:00,36.0,31.6,29.56,South,180,2.7,3.4,84,0.00,,CLR,0.26,VWS V14.01,2013-02-27 21:52:00,
2013-02-27 16:57:00,35.8,31.7,29.56,SSW,202,2.2,2.7,85,0.00,,CLR,0.26,VWS V14.01,2013-02-27 21:57:00,
2013-02-27 17:02:00,36.0,31.6,29.56,SW,225,2.2,2.2,84,0.00,,CLR,0.26,VWS V14.01,2013-02-27 22:02:00,
2013-02-27 17:07:00,35.8,31.7,29.56,SSW,202,2.5,2.5,85,0.00,,CLR,0.26,VWS V14.01,2013-02-27 22:07:00,
2013-02-27 17:12:00,35.6,31.8,29.56,SSE,158,3.1,3.1,86,0.00,,CLR,0.26,VWS V14.01,2013-02-27 22:12:00,
2013-02-27 17:17:00,35.4,31.9,29.56,South,180,3.4,3.4,87,0.00,,CLR,0.26,VWS V14.01,2013-02-27 22:17:00,
2013-02-27 17:22:00,35.4,32.2,29.56,SSW,202,3.1,3.4,88,0.00,,CLR,0.26,VWS V14.01,2013-02-27 22:22:00,
2013-02-27 17:27:00,35.2,32.0,29.53,SSW,202,2.7,3.1,88,0.00,,CLR,0.26,VWS V14.01,2013-02-27 22:27:00,
2013-02-27 17:32:00,35.1,31.9,29.53,SSW,202,2.0,2.7,88,0.00,,CLR,0.26,VWS V14.01,2013-02-27 22:32:00,
2013-02-27 17:37:00,34.9,32.0,29.53,South,180,2.7,2.7,89,0.00,,CLR,0.26,VWS V14.01,2013-02-27 22:37:00,
2013-02-27 17:42:00,34.7,32.1,29.56,SSE,158,2.7,2.7,90,0.00,,CLR,0.26,VWS V14.01,2013-02-27 22:42:00,
2013-02-27 17:47:00,34.5,31.9,29.56,South,180,2.2,2.7,90,0.00,,CLR,0.26,VWS V14.01,2013-02-27 22:47:00,
2013-02-27 17:52:00,34.5,31.9,29.56,SSW,202,1.3,2.2,90,0.00,,CLR,0.26,VWS V14.01,2013-02-27 22:52:00,
2013-02-27 17:57:00,34.3,31.7,29.56,SSW,202,2.0,2.0,90,0.00,,CLR,0.26,VWS V14.01,2013-02-27 22:57:00,
2013-02-27 18:02:00,34.3,32.0,29.56,South,180,1.3,2.0,91,0.00,,CLR,0.26,VWS V14.01,2013-02-27 23:02:00,
2013-02-27 18:07:00,34.3,32.0,29.56,SSW,202,0.0,1.3,91,0.00,,CLR,0.26,VWS V14.01,2013-02-27 23:07:00,
2013-02-27 18:12:00,34.2,32.1,29.56,South,180,1.6,1.6,92,0.00,,CLR,0.26,VWS V14.01,2013-02-27 23:12:00,
2013-02-27 18:17:00,34.0,31.6,29.56,SSE,158,2.5,2.5,91,0.00,,CLR,0.26,VWS V14.01,2013-02-27 23:17:00,
2013-02-27 18:22:00,34.0,31.4,29.56,SSE,158,2.5,2.5,90,0.00,,CLR,0.26,VWS V14.01,2013-02-27 23:22:00,
2013-02-27 18:27:00,34.0,31.4,29.59,SSE,158,2.5,2.5,90,0.00,,CLR,0.26,VWS V14.01,2013-02-27 23:27:00,
2013-02-27 18:32:00,33.8,31.2,29.59,SSE,158,2.9,2.9,90,0.00,,CLR,0.26,VWS V14.01,2013-02-27 23:32:00,
2013-02-27 18:37:00,33.8,31.2,29.59,SSE,158,2.7,2.9,90,0.00,,CLR,0.26,VWS V14.01,2013-02-27 23:37:00,
2013-02-27 18:42:00,33.8,31.2,29.59,SSE,158,2.7,2.7,90,0.00,,CLR,0.26,VWS V14.01,2013-02-27 23:42:00,
2013-02-27 18:47:00,33.8,31.5,29.59,South,180,2.5,2.7,91,0.00,,CLR,0.26,VWS V14.01,2013-02-27 23:47:00,
2013-02-27 18:52:00,33.8,32.0,29.59,SSE,158,2.9,2.9,93,0.00,,CLR,0.26,VWS V14.01,2013-02-27 23:52:00,
2013-02-27 18:57:00,33.8,32.3,29.59,South,180,2.9,2.9,94,0.00,,CLR,0.26,VWS V14.01,2013-02-27 23:57:00,
2013-02-27 19:02:00,33.8,32.5,29.59,South,180,2.9,2.9,95,0.00,,CLR,0.26,VWS V14.01,2013-02-28 00:02:00,
2013-02-27 19:07:00,33.6,32.6,29.59,South,180,2.9,2.9,96,0.00,,CLR,0.26,VWS V14.01,2013-02-28 00:07:00,
2013-02-27 19:12:00,33.6,32.6,29.59,SSE,158,3.4,3.4,96,0.00,,CLR,0.26,VWS V14.01,2013-02-28 00:12:00,
2013-02-27 19:17:00,33.6,32.9,29.59,South,180,3.6,3.6,97,0.00,,CLR,0.26,VWS V14.01,2013-02-28 00:17:00,
2013-02-27 19:22:00,33.6,33.1,29.59,SSE,158,2.5,3.6,98,0.00,,CLR,0.26,VWS V14.01,2013-02-28 00:22:00,
2013-02-27 19:27:00,33.6,33.1,29.59,South,180,2.2,2.5,98,0.00,,CLR,0.26,VWS V14.01,2013-02-28 00:27:00,
2013-02-27 19:32:00,33.4,32.9,29.59,South,180,2.7,2.7,98,0.00,,CLR,0.26,VWS V14.01,2013-02-28 00:32:00,
2013-02-27 19:37:00,33.4,32.9,29.59,South,180,2.2,2.7,98,0.00,,CLR,0.26,VWS V14.01,2013-02-28 00:37:00,
2013-02-27 19:42:00,33.3,32.8,29.59,SSW,202,1.3,2.2,98,0.00,,CLR,0.26,VWS V14.01,2013-02-28 00:42:00,
2013-02-27 19:47:00,33.3,32.8,29.59,SSW,202,1.6,1.6,98,0.00,,CLR,0.26,VWS V14.01,2013-02-28 00:47:00,
2013-02-27 19:52:00,33.3,32.8,29.59,South,180,1.6,1.6,98,0.00,,CLR,0.26,VWS V14.01,2013-02-28 00:52:00,
2013-02-27 19:57:00,33.3,32.8,29.59,South,180,0.0,1.6,98,0.00,,CLR,0.26,VWS V14.01,2013-02-28 00:57:00,
2013-02-27 20:02:00,33.3,32.8,29.59,SSW,202,0.0,0.0,98,0.00,,CLR,0.26,VWS V14.01,2013-02-28 01:02:00,
2013-02-27 20:07:00,33.3,32.8,29.59,SSW,202,0.0,0.0,98,0.00,,CLR,0.26,VWS V14.01,2013-02-28 01:07:00,
2013-02-27 20:12:00,33.3,32.8,29.59,SSW,202,0.0,0.0,98,0.00,,CLR,0.26,VWS V14.01,2013-02-28 01:12:00,
2013-02-27 20:17:00,33.3,32.8,29.59,SSW,202,1.3,1.3,98,0.00,,CLR,0.26,VWS V14.01,2013-02-28 01:17:00,
2013-02-27 20:22:00,33.3,32.8,29.59,SSW,202,1.3,1.3,98,0.00,,CLR,0.26,VWS V14.01,2013-02-28 01:22:00,
2013-02-27 20:27:00,33.3,32.5,29.59,SW,225,1.3,1.3,97,0.00,,CLR,0.26,VWS V14.01,2013-02-28 01:27:00,